sensor_id;sensor_type;location;lat;lon;timestamp;pressure;altitude;pressure_sealevel;temperature;humidity
51287;BME280;37364;46.974;18.916;2022-11-15T00:01:43;151392.56;;;4.14;100.00
51287;BME280;37364;46.974;18.916;2022-11-15T00:04:32;151410.56;;;4.21;100.00
51287;BME280;37364;46.974;18.916;2022-11-15T00:07:21;151404.13;;;4.19;100.00
51287;BME280;37364;46.974;18.916;2022-11-15T00:10:30;151418.31;;;4.24;100.00
51287;BME280;37364;46.974;18.916;2022-11-15T00:13:19;151396.38;;;4.15;100.00
51287;BME280;37364;46.974;18.916;2022-11-15T00:16:09;151415.72;;;4.23;100.00
51287;BME280;37364;46.974;18.916;2022-11-15T00:19:00;151426.06;;;4.27;100.00
51287;BME280;37364;46.974;18.916;2022-11-15T00:21:49;151410.56;;;4.21;100.00
51287;BME280;37364;46.974;18.916;2022-11-15T00:24:37;151427.34;;;4.28;100.00
51287;BME280;37364;46.974;18.916;2022-11-15T00:27:26;151422.19;;;4.26;100.00
51287;BME280;37364;46.974;18.916;2022-11-15T00:30:16;151426.06;;;4.27;100.00
51287;BME280;37364;46.974;18.916;2022-11-15T00:33:05;151413.16;;;4.22;100.00
51287;BME280;37364;46.974;18.916;2022-11-15T00:36:03;151436.38;;;4.31;100.00
51287;BME280;37364;46.974;18.916;2022-11-15T00:38:52;151420.88;;;4.25;100.00
51287;BME280;37364;46.974;18.916;2022-11-15T00:41:41;151410.56;;;4.21;100.00
51287;BME280;37364;46.974;18.916;2022-11-15T00:44:30;151431.22;;;4.29;100.00
51287;BME280;37364;46.974;18.916;2022-11-15T00:47:18;151424.75;;;4.27;100.00
51287;BME280;37364;46.974;18.916;2022-11-15T00:50:07;151431.22;;;4.29;100.00
51287;BME280;37364;46.974;18.916;2022-11-15T00:53:02;151431.22;;;4.29;100.00
51287;BME280;37364;46.974;18.916;2022-11-15T00:55:51;151435.06;;;4.31;100.00
51287;BME280;37364;46.974;18.916;2022-11-15T00:58:40;151438.94;;;4.32;100.00
51287;BME280;37364;46.974;18.916;2022-11-15T01:01:29;151433.78;;;4.30;100.00
51287;BME280;37364;46.974;18.916;2022-11-15T01:04:18;151431.22;;;4.29;100.00
51287;BME280;37364;46.974;18.916;2022-11-15T01:07:07;151445.34;;;4.35;100.00
51287;BME280;37364;46.974;18.916;2022-11-15T01:09:58;151424.75;;;4.27;100.00
51287;BME280;37364;46.974;18.916;2022-11-15T01:12:47;151441.53;;;4.33;100.00
51287;BME280;37364;46.974;18.916;2022-11-15T01:15:39;151444.09;;;4.34;100.00
51287;BME280;37364;46.974;18.916;2022-11-15T01:18:30;151437.66;;;4.32;100.00
51287;BME280;37364;46.974;18.916;2022-11-15T01:21:19;151440.22;;;4.33;100.00
51287;BME280;37364;46.974;18.916;2022-11-15T01:24:12;151459.53;;;4.41;100.00
51287;BME280;37364;46.974;18.916;2022-11-15T01:27:03;151462.16;;;4.42;100.00
51287;BME280;37364;46.974;18.916;2022-11-15T01:29:52;151447.97;;;4.36;100.00
51287;BME280;37364;46.974;18.916;2022-11-15T01:32:41;151457.00;;;4.40;100.00
51287;BME280;37364;46.974;18.916;2022-11-15T01:35:30;151445.34;;;4.35;100.00
51287;BME280;37364;46.974;18.916;2022-11-15T01:38:18;151441.53;;;4.33;100.00
51287;BME280;37364;46.974;18.916;2022-11-15T01:41:15;151431.22;;;4.29;100.00
51287;BME280;37364;46.974;18.916;2022-11-15T01:44:36;151451.84;;;4.38;100.00
51287;BME280;37364;46.974;18.916;2022-11-15T01:47:29;151449.25;;;4.36;100.00
51287;BME280;37364;46.974;18.916;2022-11-15T01:50:22;151453.13;;;4.38;100.00
51287;BME280;37364;46.974;18.916;2022-11-15T01:53:12;151429.91;;;4.29;100.00
51287;BME280;37364;46.974;18.916;2022-11-15T01:56:02;151428.63;;;4.28;100.00
51287;BME280;37364;46.974;18.916;2022-11-15T01:58:53;151442.81;;;4.34;100.00
51287;BME280;37364;46.974;18.916;2022-11-15T02:01:47;151411.91;;;4.22;100.00
51287;BME280;37364;46.974;18.916;2022-11-15T02:04:38;151433.78;;;4.30;100.00
51287;BME280;37364;46.974;18.916;2022-11-15T02:07:29;151445.34;;;4.35;100.00
51287;BME280;37364;46.974;18.916;2022-11-15T02:10:22;151441.53;;;4.33;100.00
51287;BME280;37364;46.974;18.916;2022-11-15T02:13:10;151438.94;;;4.32;100.00
51287;BME280;37364;46.974;18.916;2022-11-15T02:16:04;151437.66;;;4.32;100.00
51287;BME280;37364;46.974;18.916;2022-11-15T02:19:08;151454.38;;;4.39;100.00
51287;BME280;37364;46.974;18.916;2022-11-15T02:22:10;151423.47;;;4.26;100.00
51287;BME280;37364;46.974;18.916;2022-11-15T02:25:13;151433.78;;;4.30;100.00
51287;BME280;37364;46.974;18.916;2022-11-15T02:28:36;151429.91;;;4.29;100.00
51287;BME280;37364;46.974;18.916;2022-11-15T02:31:38;151413.16;;;4.22;100.00
51287;BME280;37364;46.974;18.916;2022-11-15T02:34:37;151433.78;;;4.30;100.00
51287;BME280;37364;46.974;18.916;2022-11-15T02:37:36;151400.25;;;4.17;100.00
51287;BME280;37364;46.974;18.916;2022-11-15T02:40:35;151426.06;;;4.27;100.00
51287;BME280;37364;46.974;18.916;2022-11-15T02:43:33;151400.25;;;4.17;100.00
51287;BME280;37364;46.974;18.916;2022-11-15T02:46:42;151399.00;;;4.16;100.00
51287;BME280;37364;46.974;18.916;2022-11-15T02:49:47;151399.00;;;4.16;100.00
51287;BME280;37364;46.974;18.916;2022-11-15T02:52:37;151386.09;;;4.11;100.00
51287;BME280;37364;46.974;18.916;2022-11-15T02:55:28;151371.94;;;4.06;100.00
51287;BME280;37364;46.974;18.916;2022-11-15T03:01:56;151378.38;;;4.08;100.00
51287;BME280;37364;46.974;18.916;2022-11-15T03:04:53;151392.56;;;4.14;100.00
51287;BME280;37364;46.974;18.916;2022-11-15T03:07:51;151402.88;;;4.18;100.00
51287;BME280;37364;46.974;18.916;2022-11-15T03:10:53;151393.84;;;4.14;100.00
51287;BME280;37364;46.974;18.916;2022-11-15T03:13:51;151387.41;;;4.12;100.00
51287;BME280;37364;46.974;18.916;2022-11-15T03:16:45;151387.41;;;4.12;100.00
51287;BME280;37364;46.974;18.916;2022-11-15T03:19:43;151366.75;;;4.04;100.00
51287;BME280;37364;46.974;18.916;2022-11-15T03:22:38;151360.31;;;4.01;100.00
51287;BME280;37364;46.974;18.916;2022-11-15T03:25:29;151351.31;;;3.97;100.00
51287;BME280;37364;46.974;18.916;2022-11-15T03:28:23;151383.53;;;4.10;100.00
51287;BME280;37364;46.974;18.916;2022-11-15T03:31:15;151377.09;;;4.08;100.00
51287;BME280;37364;46.974;18.916;2022-11-15T03:34:26;151377.09;;;4.08;100.00
51287;BME280;37364;46.974;18.916;2022-11-15T03:37:22;151359.06;;;4.01;100.00
51287;BME280;37364;46.974;18.916;2022-11-15T03:40:13;151350.03;;;3.97;100.00
51287;BME280;37364;46.974;18.916;2022-11-15T03:43:09;151362.94;;;4.02;100.00
51287;BME280;37364;46.974;18.916;2022-11-15T03:46:01;151371.94;;;4.06;100.00
51287;BME280;37364;46.974;18.916;2022-11-15T03:48:56;151369.34;;;4.05;100.00
51287;BME280;37364;46.974;18.916;2022-11-15T03:51:49;151359.06;;;4.01;100.00
51287;BME280;37364;46.974;18.916;2022-11-15T03:54:50;151373.22;;;4.06;100.00
51287;BME280;37364;46.974;18.916;2022-11-15T03:57:41;151374.50;;;4.07;100.00
51287;BME280;37364;46.974;18.916;2022-11-15T04:00:30;151378.38;;;4.08;100.00
51287;BME280;37364;46.974;18.916;2022-11-15T04:03:23;151382.25;;;4.10;100.00
51287;BME280;37364;46.974;18.916;2022-11-15T04:06:12;151377.09;;;4.08;100.00
51287;BME280;37364;46.974;18.916;2022-11-15T04:09:01;151374.50;;;4.07;100.00
51287;BME280;37364;46.974;18.916;2022-11-15T04:11:52;151377.09;;;4.08;100.00
51287;BME280;37364;46.974;18.916;2022-11-15T04:14:41;151379.66;;;4.09;100.00
51287;BME280;37364;46.974;18.916;2022-11-15T04:17:52;151371.94;;;4.06;100.00
51287;BME280;37364;46.974;18.916;2022-11-15T04:20:41;151370.63;;;4.05;100.00
51287;BME280;37364;46.974;18.916;2022-11-15T04:23:42;151387.41;;;4.12;100.00
51287;BME280;37364;46.974;18.916;2022-11-15T04:26:43;151386.09;;;4.11;100.00
51287;BME280;37364;46.974;18.916;2022-11-15T04:29:35;151406.75;;;4.20;100.00
51287;BME280;37364;46.974;18.916;2022-11-15T04:32:24;151387.41;;;4.12;100.00
51287;BME280;37364;46.974;18.916;2022-11-15T04:35:14;151374.50;;;4.07;100.00
51287;BME280;37364;46.974;18.916;2022-11-15T04:38:05;151369.34;;;4.05;100.00
51287;BME280;37364;46.974;18.916;2022-11-15T04:40:54;151369.34;;;4.05;100.00
51287;BME280;37364;46.974;18.916;2022-11-15T04:43:42;151374.50;;;4.07;100.00
51287;BME280;37364;46.974;18.916;2022-11-15T04:46:34;151383.53;;;4.10;100.00
51287;BME280;37364;46.974;18.916;2022-11-15T04:49:23;151386.09;;;4.11;100.00
51287;BME280;37364;46.974;18.916;2022-11-15T04:52:12;151397.72;;;4.16;100.00
51287;BME280;37364;46.974;18.916;2022-11-15T04:55:01;151408.03;;;4.20;100.00
51287;BME280;37364;46.974;18.916;2022-11-15T04:57:59;151401.59;;;4.18;100.00
51287;BME280;37364;46.974;18.916;2022-11-15T05:00:48;151402.88;;;4.18;100.00
51287;BME280;37364;46.974;18.916;2022-11-15T05:03:40;151410.56;;;4.21;100.00
51287;BME280;37364;46.974;18.916;2022-11-15T05:06:41;151405.41;;;4.19;100.00
51287;BME280;37364;46.974;18.916;2022-11-15T05:09:29;151399.00;;;4.16;100.00
51287;BME280;37364;46.974;18.916;2022-11-15T05:12:18;151404.13;;;4.19;100.00
51287;BME280;37364;46.974;18.916;2022-11-15T05:15:08;151408.03;;;4.20;100.00
51287;BME280;37364;46.974;18.916;2022-11-15T05:17:58;151389.97;;;4.13;100.00
51287;BME280;37364;46.974;18.916;2022-11-15T05:20:50;151379.66;;;4.09;100.00
51287;BME280;37364;46.974;18.916;2022-11-15T05:23:40;151383.53;;;4.10;100.00
51287;BME280;37364;46.974;18.916;2022-11-15T05:26:29;151386.09;;;4.11;100.00
51287;BME280;37364;46.974;18.916;2022-11-15T05:29:17;151380.94;;;4.09;100.00
51287;BME280;37364;46.974;18.916;2022-11-15T05:32:09;151379.66;;;4.09;100.00
51287;BME280;37364;46.974;18.916;2022-11-15T05:34:57;151378.38;;;4.08;100.00
51287;BME280;37364;46.974;18.916;2022-11-15T05:37:49;151369.34;;;4.05;100.00
51287;BME280;37364;46.974;18.916;2022-11-15T05:40:42;151386.09;;;4.11;100.00
51287;BME280;37364;46.974;18.916;2022-11-15T05:43:34;151404.13;;;4.19;100.00
51287;BME280;37364;46.974;18.916;2022-11-15T05:46:24;151383.53;;;4.10;100.00
51287;BME280;37364;46.974;18.916;2022-11-15T05:49:16;151384.81;;;4.11;100.00
51287;BME280;37364;46.974;18.916;2022-11-15T05:52:08;151386.09;;;4.11;100.00
51287;BME280;37364;46.974;18.916;2022-11-15T05:55:01;151370.63;;;4.05;100.00
51287;BME280;37364;46.974;18.916;2022-11-15T05:57:51;151389.97;;;4.13;100.00
51287;BME280;37364;46.974;18.916;2022-11-15T06:00:41;151388.69;;;4.12;100.00
51287;BME280;37364;46.974;18.916;2022-11-15T06:03:30;151401.59;;;4.18;100.00
51287;BME280;37364;46.974;18.916;2022-11-15T06:06:20;151413.16;;;4.22;100.00
51287;BME280;37364;46.974;18.916;2022-11-15T06:09:08;151423.47;;;4.26;100.00
51287;BME280;37364;46.974;18.916;2022-11-15T06:11:59;151431.22;;;4.29;100.00
51287;BME280;37364;46.974;18.916;2022-11-15T06:14:49;151442.81;;;4.34;100.00
51287;BME280;37364;46.974;18.916;2022-11-15T06:17:38;151442.81;;;4.34;100.00
51287;BME280;37364;46.974;18.916;2022-11-15T06:20:27;151442.81;;;4.34;100.00
51287;BME280;37364;46.974;18.916;2022-11-15T06:23:16;151445.34;;;4.35;100.00
51287;BME280;37364;46.974;18.916;2022-11-15T06:26:05;151428.63;;;4.28;100.00
51287;BME280;37364;46.974;18.916;2022-11-15T06:28:56;151428.63;;;4.28;100.00
51287;BME280;37364;46.974;18.916;2022-11-15T06:31:45;151442.81;;;4.34;100.00
51287;BME280;37364;46.974;18.916;2022-11-15T06:34:34;151433.78;;;4.30;100.00
51287;BME280;37364;46.974;18.916;2022-11-15T06:37:22;151445.34;;;4.35;100.00
51287;BME280;37364;46.974;18.916;2022-11-15T06:40:11;151445.34;;;4.35;100.00
51287;BME280;37364;46.974;18.916;2022-11-15T06:43:02;151450.50;;;4.37;100.00
51287;BME280;37364;46.974;18.916;2022-11-15T06:45:53;151451.84;;;4.38;100.00
51287;BME280;37364;46.974;18.916;2022-11-15T06:48:42;151460.88;;;4.41;100.00
51287;BME280;37364;46.974;18.916;2022-11-15T06:51:31;151480.22;;;4.49;100.00
51287;BME280;37364;46.974;18.916;2022-11-15T06:54:21;151490.50;;;4.53;100.00
51287;BME280;37364;46.974;18.916;2022-11-15T06:57:09;151478.88;;;4.48;100.00
51287;BME280;37364;46.974;18.916;2022-11-15T06:59:58;151463.41;;;4.42;100.00
51287;BME280;37364;46.974;18.916;2022-11-15T07:02:50;151463.41;;;4.42;100.00
51287;BME280;37364;46.974;18.916;2022-11-15T07:05:38;151458.28;;;4.40;100.00
51287;BME280;37364;46.974;18.916;2022-11-15T07:08:27;151459.53;;;4.41;100.00
51287;BME280;37364;46.974;18.916;2022-11-15T07:11:16;151489.19;;;4.52;100.00
51287;BME280;37364;46.974;18.916;2022-11-15T07:14:05;151498.22;;;4.56;100.00
51287;BME280;37364;46.974;18.916;2022-11-15T07:16:54;151486.63;;;4.51;100.00
51287;BME280;37364;46.974;18.916;2022-11-15T07:19:45;151505.97;;;4.59;100.00
51287;BME280;37364;46.974;18.916;2022-11-15T07:22:34;151487.91;;;4.52;100.00
51287;BME280;37364;46.974;18.916;2022-11-15T07:25:23;151504.66;;;4.59;100.00
51287;BME280;37364;46.974;18.916;2022-11-15T07:28:12;151495.66;;;4.55;100.00
51287;BME280;37364;46.974;18.916;2022-11-15T07:31:02;151498.22;;;4.56;100.00
51287;BME280;37364;46.974;18.916;2022-11-15T07:33:51;151521.44;;;4.65;100.00
51287;BME280;37364;46.974;18.916;2022-11-15T07:36:43;151503.38;;;4.58;100.00
51287;BME280;37364;46.974;18.916;2022-11-15T07:39:32;151515.00;;;4.63;100.00
51287;BME280;37364;46.974;18.916;2022-11-15T07:42:20;151529.13;;;4.68;100.00
51287;BME280;37364;46.974;18.916;2022-11-15T07:45:23;151515.00;;;4.63;100.00
51287;BME280;37364;46.974;18.916;2022-11-15T07:48:14;151531.75;;;4.69;100.00
51287;BME280;37364;46.974;18.916;2022-11-15T07:51:04;151545.94;;;4.75;100.00
51287;BME280;37364;46.974;18.916;2022-11-15T07:54:01;151556.25;;;4.79;100.00
51287;BME280;37364;46.974;18.916;2022-11-15T07:56:49;151558.78;;;4.80;100.00
51287;BME280;37364;46.974;18.916;2022-11-15T07:59:38;151552.34;;;4.78;100.00
51287;BME280;37364;46.974;18.916;2022-11-15T08:02:26;151578.13;;;4.88;100.00
51287;BME280;37364;46.974;18.916;2022-11-15T08:05:15;151567.81;;;4.84;100.00
51287;BME280;37364;46.974;18.916;2022-11-15T08:08:04;151567.81;;;4.84;100.00
51287;BME280;37364;46.974;18.916;2022-11-15T08:10:57;151548.47;;;4.76;100.00
51287;BME280;37364;46.974;18.916;2022-11-15T08:13:46;151548.47;;;4.76;100.00
51287;BME280;37364;46.974;18.916;2022-11-15T08:16:35;151534.28;;;4.70;100.00
51287;BME280;37364;46.974;18.916;2022-11-15T08:19:23;151543.31;;;4.74;100.00
51287;BME280;37364;46.974;18.916;2022-11-15T08:22:12;151567.81;;;4.84;100.00
51287;BME280;37364;46.974;18.916;2022-11-15T08:25:00;151578.13;;;4.88;100.00
51287;BME280;37364;46.974;18.916;2022-11-15T08:27:53;151603.97;;;4.98;100.00
51287;BME280;37364;46.974;18.916;2022-11-15T08:30:43;151620.69;;;5.05;100.00
51287;BME280;37364;46.974;18.916;2022-11-15T08:33:32;151631.00;;;5.09;100.00
51287;BME280;37364;46.974;18.916;2022-11-15T08:36:22;151654.22;;;5.18;100.00
51287;BME280;37364;46.974;18.916;2022-11-15T08:39:11;151660.66;;;5.21;100.00
51287;BME280;37364;46.974;18.916;2022-11-15T08:42:00;151674.84;;;5.26;100.00
51287;BME280;37364;46.974;18.916;2022-11-15T08:44:51;151710.97;;;5.41;100.00
51287;BME280;37364;46.974;18.916;2022-11-15T08:47:39;151725.16;;;5.46;100.00
51287;BME280;37364;46.974;18.916;2022-11-15T08:50:31;151731.63;;;5.49;100.00
51287;BME280;37364;46.974;18.916;2022-11-15T08:53:19;151725.16;;;5.46;100.00
51287;BME280;37364;46.974;18.916;2022-11-15T08:56:09;151713.56;;;5.42;100.00
51287;BME280;37364;46.974;18.916;2022-11-15T08:59:00;151725.16;;;5.46;100.00
51287;BME280;37364;46.974;18.916;2022-11-15T09:01:52;151731.63;;;5.49;100.00
51287;BME280;37364;46.974;18.916;2022-11-15T09:04:41;151710.97;;;5.41;100.00
51287;BME280;37364;46.974;18.916;2022-11-15T09:07:29;151734.19;;;5.50;100.00
51287;BME280;37364;46.974;18.916;2022-11-15T09:10:19;151734.19;;;5.50;100.00
51287;BME280;37364;46.974;18.916;2022-11-15T09:13:09;151750.94;;;5.57;100.00
51287;BME280;37364;46.974;18.916;2022-11-15T09:15:59;151765.13;;;5.62;100.00
51287;BME280;37364;46.974;18.916;2022-11-15T09:18:52;151798.69;;;5.75;100.00
51287;BME280;37364;46.974;18.916;2022-11-15T09:21:41;151781.94;;;5.69;100.00
51287;BME280;37364;46.974;18.916;2022-11-15T09:24:30;151769.00;;;5.64;100.00
51287;BME280;37364;46.974;18.916;2022-11-15T09:27:19;151776.78;;;5.67;100.00
51287;BME280;37364;46.974;18.916;2022-11-15T09:30:09;151748.38;;;5.55;100.00
51287;BME280;37364;46.974;18.916;2022-11-15T09:32:58;151735.47;;;5.50;100.00
51287;BME280;37364;46.974;18.916;2022-11-15T09:35:50;151739.34;;;5.52;100.00
51287;BME280;37364;46.974;18.916;2022-11-15T09:38:39;151754.81;;;5.58;100.00
51287;BME280;37364;46.974;18.916;2022-11-15T09:41:47;151756.16;;;5.59;100.00
51287;BME280;37364;46.974;18.916;2022-11-15T09:44:57;151750.94;;;5.57;100.00
51287;BME280;37364;46.974;18.916;2022-11-15T09:48:09;151766.47;;;5.63;100.00
51287;BME280;37364;46.974;18.916;2022-11-15T09:51:04;151787.09;;;5.71;100.00
51287;BME280;37364;46.974;18.916;2022-11-15T09:53:39;151811.59;;;5.81;100.00
51287;BME280;37364;46.974;18.916;2022-11-15T09:56:34;151820.66;;;5.84;100.00
51287;BME280;37364;46.974;18.916;2022-11-15T09:59:18;151803.84;;;5.78;100.00
51287;BME280;37364;46.974;18.916;2022-11-15T10:02:12;151809.00;;;5.80;100.00
51287;BME280;37364;46.974;18.916;2022-11-15T10:04:47;151828.34;;;5.87;100.00
51287;BME280;37364;46.974;18.916;2022-11-15T10:07:25;151837.41;;;5.91;100.00
51287;BME280;37364;46.974;18.916;2022-11-15T10:10:00;151855.53;;;5.98;100.00
51287;BME280;37364;46.974;18.916;2022-11-15T10:12:33;151845.16;;;5.94;100.00
51287;BME280;37364;46.974;18.916;2022-11-15T10:15:09;151833.53;;;5.89;100.00
51287;BME280;37364;46.974;18.916;2022-11-15T10:20:48;151829.63;;;5.88;100.00
51287;BME280;37364;46.974;18.916;2022-11-15T10:23:22;151825.81;;;5.86;100.00
51287;BME280;37364;46.974;18.916;2022-11-15T10:25:55;151829.63;;;5.88;100.00
51287;BME280;37364;46.974;18.916;2022-11-15T10:28:32;151849.03;;;5.96;100.00
51287;BME280;37364;46.974;18.916;2022-11-15T10:31:02;151851.66;;;5.97;100.00
51287;BME280;37364;46.974;18.916;2022-11-15T10:33:34;151838.69;;;5.91;100.00
51287;BME280;37364;46.974;18.916;2022-11-15T10:36:30;151841.28;;;5.92;100.00
51287;BME280;37364;46.974;18.916;2022-11-15T10:39:03;151851.66;;;5.97;100.00
51287;BME280;37364;46.974;18.916;2022-11-15T10:41:38;151841.28;;;5.92;100.00
51287;BME280;37364;46.974;18.916;2022-11-15T10:44:23;151841.28;;;5.92;100.00
51287;BME280;37364;46.974;18.916;2022-11-15T10:47:21;151821.94;;;5.85;100.00
51287;BME280;37364;46.974;18.916;2022-11-15T10:50:00;151814.16;;;5.82;100.00
51287;BME280;37364;46.974;18.916;2022-11-15T10:52:33;151780.59;;;5.68;100.00
51287;BME280;37364;46.974;18.916;2022-11-15T10:55:22;151793.53;;;5.73;100.00
51287;BME280;37364;46.974;18.916;2022-11-15T10:58:03;151805.13;;;5.78;100.00
51287;BME280;37364;46.974;18.916;2022-11-15T11:00:37;151828.34;;;5.87;100.00
51287;BME280;37364;46.974;18.916;2022-11-15T11:03:27;151845.16;;;5.94;100.00
51287;BME280;37364;46.974;18.916;2022-11-15T11:06:08;151871.00;;;6.04;100.00
51287;BME280;37364;46.974;18.916;2022-11-15T11:08:39;151876.16;;;6.06;100.00
51287;BME280;37364;46.974;18.916;2022-11-15T11:11:12;151900.69;;;6.16;100.00
51287;BME280;37364;46.974;18.916;2022-11-15T11:13:42;151923.94;;;6.25;100.00
51287;BME280;37364;46.974;18.916;2022-11-15T11:16:36;151891.66;;;6.12;100.00
51287;BME280;37364;46.974;18.916;2022-11-15T11:19:27;151936.81;;;6.30;100.00
51287;BME280;37364;46.974;18.916;2022-11-15T11:22:05;151908.41;;;6.19;100.00
51287;BME280;37364;46.974;18.916;2022-11-15T11:24:44;151920.06;;;6.24;100.00
51287;BME280;37364;46.974;18.916;2022-11-15T11:27:27;151909.72;;;6.20;100.00
51287;BME280;37364;46.974;18.916;2022-11-15T11:30:06;151911.00;;;6.20;100.00
51287;BME280;37364;46.974;18.916;2022-11-15T11:32:58;151938.09;;;6.31;100.00
51287;BME280;37364;46.974;18.916;2022-11-15T11:35:38;151935.53;;;6.30;100.00
51287;BME280;37364;46.974;18.916;2022-11-15T11:38:31;151948.47;;;6.35;100.00
51287;BME280;37364;46.974;18.916;2022-11-15T11:41:11;151971.66;;;6.44;100.00
51287;BME280;37364;46.974;18.916;2022-11-15T11:43:53;151989.75;;;6.51;100.00
51287;BME280;37364;46.974;18.916;2022-11-15T11:46:44;151996.19;;;6.54;100.00
51287;BME280;37364;46.974;18.916;2022-11-15T11:49:21;151989.75;;;6.51;100.00
51287;BME280;37364;46.974;18.916;2022-11-15T11:52:00;151993.63;;;6.53;100.00
51287;BME280;37364;46.974;18.916;2022-11-15T11:54:38;152009.13;;;6.59;100.00
51287;BME280;37364;46.974;18.916;2022-11-15T11:57:13;152024.59;;;6.65;100.00
51287;BME280;37364;46.974;18.916;2022-11-15T11:59:51;152040.09;;;6.71;100.00
51287;BME280;37364;46.974;18.916;2022-11-15T12:02:27;152073.66;;;6.85;100.00
51287;BME280;37364;46.974;18.916;2022-11-15T12:05:05;152081.38;;;6.88;100.00
51287;BME280;37364;46.974;18.916;2022-11-15T12:07:39;152100.75;;;6.96;100.00
51287;BME280;37364;46.974;18.916;2022-11-15T12:10:20;152084.00;;;6.89;100.00
51287;BME280;37364;46.974;18.916;2022-11-15T12:13:00;152113.69;;;7.01;100.00
51287;BME280;37364;46.974;18.916;2022-11-15T12:15:40;152122.72;;;7.04;100.00
51287;BME280;37364;46.974;18.916;2022-11-15T12:18:15;152105.91;;;6.98;100.00
51287;BME280;37364;46.974;18.916;2022-11-15T12:20:53;152120.13;;;7.03;100.00
51287;BME280;37364;46.974;18.916;2022-11-15T12:23:27;152087.88;;;6.90;100.00
51287;BME280;37364;46.974;18.916;2022-11-15T12:26:00;152086.59;;;6.90;100.00
51287;BME280;37364;46.974;18.916;2022-11-15T12:28:37;152084.00;;;6.89;100.00
51287;BME280;37364;46.974;18.916;2022-11-15T12:31:36;152069.78;;;6.83;100.00
51287;BME280;37364;46.974;18.916;2022-11-15T12:34:28;152082.72;;;6.88;100.00
51287;BME280;37364;46.974;18.916;2022-11-15T12:36:59;152065.91;;;6.82;100.00
51287;BME280;37364;46.974;18.916;2022-11-15T12:42:40;152058.19;;;6.79;100.00
51287;BME280;37364;46.974;18.916;2022-11-15T12:45:25;152060.72;;;6.80;100.00
51287;BME280;37364;46.974;18.916;2022-11-15T12:51:04;152114.97;;;7.01;100.00
51287;BME280;37364;46.974;18.916;2022-11-15T12:53:35;152113.69;;;7.01;100.00
51287;BME280;37364;46.974;18.916;2022-11-15T12:56:20;152122.72;;;7.04;100.00
51287;BME280;37364;46.974;18.916;2022-11-15T12:58:53;152127.91;;;7.06;100.00
51287;BME280;37364;46.974;18.916;2022-11-15T13:04:29;152126.63;;;7.06;100.00
51287;BME280;37364;46.974;18.916;2022-11-15T13:07:01;152127.91;;;7.06;100.00
51287;BME280;37364;46.974;18.916;2022-11-15T13:09:53;152153.72;;;7.17;100.00
51287;BME280;37364;46.974;18.916;2022-11-15T13:12:49;152084.00;;;6.89;100.00
51287;BME280;37364;46.974;18.916;2022-11-15T13:18:30;152120.13;;;7.03;100.00
51287;BME280;37364;46.974;18.916;2022-11-15T13:21:18;152149.84;;;7.15;100.00
51287;BME280;37364;46.974;18.916;2022-11-15T13:24:01;152153.72;;;7.17;100.00
51287;BME280;37364;46.974;18.916;2022-11-15T13:26:31;152161.50;;;7.20;100.00
51287;BME280;37364;46.974;18.916;2022-11-15T13:29:01;152143.38;;;7.12;100.00
51287;BME280;37364;46.974;18.916;2022-11-15T13:31:35;152125.28;;;7.05;100.00
51287;BME280;37364;46.974;18.916;2022-11-15T13:34:19;152140.84;;;7.11;100.00
51287;BME280;37364;46.974;18.916;2022-11-15T13:37:28;152151.16;;;7.16;100.00
51287;BME280;37364;46.974;18.916;2022-11-15T13:40:22;152160.16;;;7.19;100.00
51287;BME280;37364;46.974;18.916;2022-11-15T13:42:55;152131.78;;;7.08;100.00
51287;BME280;37364;46.974;18.916;2022-11-15T13:45:26;152125.28;;;7.05;100.00
51287;BME280;37364;46.974;18.916;2022-11-15T13:47:57;152114.97;;;7.01;100.00
51287;BME280;37364;46.974;18.916;2022-11-15T13:50:32;152102.09;;;6.96;100.00
51287;BME280;37364;46.974;18.916;2022-11-15T13:53:09;152096.91;;;6.94;100.00
51287;BME280;37364;46.974;18.916;2022-11-15T13:55:39;152078.81;;;6.87;100.00
51287;BME280;37364;46.974;18.916;2022-11-15T13:58:09;152093.03;;;6.92;100.00
51287;BME280;37364;46.974;18.916;2022-11-15T14:00:44;152080.09;;;6.87;100.00
51287;BME280;37364;46.974;18.916;2022-11-15T14:03:19;152085.28;;;6.89;100.00
51287;BME280;37364;46.974;18.916;2022-11-15T14:06:03;152069.78;;;6.83;100.00
51287;BME280;37364;46.974;18.916;2022-11-15T14:08:37;152084.00;;;6.89;100.00
51287;BME280;37364;46.974;18.916;2022-11-15T14:11:12;152058.19;;;6.79;100.00
51287;BME280;37364;46.974;18.916;2022-11-15T14:14:01;152047.84;;;6.75;100.00
51287;BME280;37364;46.974;18.916;2022-11-15T14:16:34;152041.38;;;6.72;100.00
51287;BME280;37364;46.974;18.916;2022-11-15T14:19:06;152041.38;;;6.72;100.00
51287;BME280;37364;46.974;18.916;2022-11-15T14:22:10;152023.31;;;6.65;100.00
51287;BME280;37364;46.974;18.916;2022-11-15T14:24:45;152031.03;;;6.68;100.00
51287;BME280;37364;46.974;18.916;2022-11-15T14:27:17;152014.28;;;6.61;100.00
51287;BME280;37364;46.974;18.916;2022-11-15T14:29:47;152016.84;;;6.62;100.00
51287;BME280;37364;46.974;18.916;2022-11-15T14:32:19;152020.72;;;6.64;100.00
51287;BME280;37364;46.974;18.916;2022-11-15T14:34:54;152022.00;;;6.64;100.00
51287;BME280;37364;46.974;18.916;2022-11-15T14:37:26;152023.31;;;6.65;100.00
51287;BME280;37364;46.974;18.916;2022-11-15T14:40:02;152024.59;;;6.65;100.00
51287;BME280;37364;46.974;18.916;2022-11-15T14:42:33;152034.91;;;6.69;100.00
51287;BME280;37364;46.974;18.916;2022-11-15T14:45:11;152013.00;;;6.61;100.00